Kasif Kalkavan — V7IX7 — position and weather

sailwx.info

Track history (hours):
 
Tides and Currents Weather Stations Pressure Air Temp Water Temp Dewpoint Dewpoint Depression Visibility Wind Speed Wind Dir Waves Ship Positions

Kasif Kalkavan

Last reported at 2014-Sep-21 19:05 UTC. Time now 2014-Sep-22 08:15 UTC.
Position N 40°57' E 028°37'.

Type: Cargo ship. MMSI: 538090190.

Date/timePositionNaut miles runAvg speedWind from/ knotsBaromVisibWave heightAir tempDewpointWater temp
2014-Sep-21 19:05N 40°57' E 028°37'0 0.0
2014-Sep-21 00:30N 40°57' E 028°37'0 0.0
2014-Sep-20 22:32N 40°57' E 028°37'4 0.3
2014-Sep-20 10:22N 40°54' E 028°34'27713.1
2014-Sep-19 13:07N 37°34' E 024°26'47013.6
2014-Sep-18 02:30N 35°49' E 014°54'1415.1
2014-Sep-18 01:33N 35°48' E 014°37'4 0.2
2014-Sep-16 20:26N 35°51' E 014°40'0 0.0
2014-Sep-16 19:20N 35°51' E 014°40'0 0.0
2014-Sep-16 17:20N 35°51' E 014°40'0 0.0
2014-Sep-16 14:11N 35°51' E 014°40'0 0.0
2014-Sep-16 04:21N 35°51' E 014°40'0 0.1
2014-Sep-16 03:33N 35°51' E 014°40'0 0.0
2014-Sep-16 02:33N 35°51' E 014°40'0 0.0
2014-Sep-16 01:27N 35°51' E 014°40'0 0.1
2014-Sep-16 00:33N 35°51' E 014°40'0 0.0
2014-Sep-15 22:18N 35°51' E 014°40'0 0.0
2014-Sep-15 21:15N 35°51' E 014°40'0 0.0
2014-Sep-15 20:33N 35°51' E 014°40'0 0.0
2014-Sep-15 19:33N 35°51' E 014°40'0 0.0
2014-Sep-15 18:21N 35°51' E 014°40'0 0.0
2014-Sep-15 17:27N 35°51' E 014°40'0 0.0
2014-Sep-15 16:30N 35°51' E 014°40'0 0.0
2014-Sep-15 15:33N 35°51' E 014°40'0 0.0
2014-Sep-15 14:33N 35°51' E 014°40'0 0.0
2014-Sep-15 13:33N 35°51' E 014°40'0 0.0
2014-Sep-15 12:33N 35°51' E 014°40'0 0.0
2014-Sep-15 11:33N 35°51' E 014°40'0 0.0
2014-Sep-15 10:33N 35°51' E 014°40'0 0.0
2014-Sep-15 09:33N 35°51' E 014°40'0 0.0
2014-Sep-15 08:33N 35°51' E 014°40'0 0.0
2014-Sep-15 07:30N 35°51' E 014°40'0 0.0
2014-Sep-15 06:30N 35°51' E 014°40'0 0.0
2014-Sep-15 05:22N 35°51' E 014°40'5 6.5
2014-Sep-15 04:33N 35°48' E 014°35'2 1.8
2014-Sep-15 03:30N 35°49' E 014°33'19 2.0
2014-Sep-14 18:12N 35°49' E 014°56'1013.8
2014-Sep-14 17:29N 35°50' E 015°08'39414.0
2014-Sep-13 13:17N 36°26' E 023°14'3015.4
2014-Sep-13 11:21N 36°52' E 023°33'3115.0
2014-Sep-13 09:17N 37°18' E 023°54'1114.8
2014-Sep-13 08:33N 37°27' E 024°01'3014.8
2014-Sep-13 06:33N 37°49' E 024°26'4514.9
2014-Sep-13 03:33N 38°28' E 024°55'3115.1
2014-Sep-13 01:28N 38°56' E 025°14'1415.3
2014-Sep-13 00:34N 39°08' E 025°23'187 6.9
2014-Sep-11 21:33N 40°27' E 029°03'0 0.0
2014-Sep-11 20:33N 40°27' E 029°03'0 0.0
2014-Sep-11 19:23N 40°27' E 029°03'  
Track history (hours):
 
Tides and Currents Weather Stations Pressure Air Temp Water Temp Dewpoint Dewpoint Depression Visibility Wind Speed Wind Dir Waves Ship Positions

Kasif Kalkavan

Last reported at 2014-Sep-21 19:05 UTC. Time now 2014-Sep-22 08:15 UTC.
Position N 40°57' E 028°37'.

Type: Cargo ship. MMSI: 538090190.

Date/timePositionNaut miles runAvg speedWind from/ knotsBaromVisibWave heightAir tempDewpointWater temp
2014-Sep-21 19:05N 40°57' E 028°37'0 0.0
2014-Sep-21 00:30N 40°57' E 028°37'0 0.0
2014-Sep-20 22:32N 40°57' E 028°37'4 0.3
2014-Sep-20 10:22N 40°54' E 028°34'27713.1
2014-Sep-19 13:07N 37°34' E 024°26'47013.6
2014-Sep-18 02:30N 35°49' E 014°54'1415.1
2014-Sep-18 01:33N 35°48' E 014°37'4 0.2
2014-Sep-16 20:26N 35°51' E 014°40'0 0.0
2014-Sep-16 19:20N 35°51' E 014°40'0 0.0
2014-Sep-16 17:20N 35°51' E 014°40'0 0.0
2014-Sep-16 14:11N 35°51' E 014°40'0 0.0
2014-Sep-16 04:21N 35°51' E 014°40'0 0.1
2014-Sep-16 03:33N 35°51' E 014°40'0 0.0
2014-Sep-16 02:33N 35°51' E 014°40'0 0.0
2014-Sep-16 01:27N 35°51' E 014°40'0 0.1
2014-Sep-16 00:33N 35°51' E 014°40'0 0.0
2014-Sep-15 22:18N 35°51' E 014°40'0 0.0
2014-Sep-15 21:15N 35°51' E 014°40'0 0.0
2014-Sep-15 20:33N 35°51' E 014°40'0 0.0
2014-Sep-15 19:33N 35°51' E 014°40'0 0.0
2014-Sep-15 18:21N 35°51' E 014°40'0 0.0
2014-Sep-15 17:27N 35°51' E 014°40'0 0.0
2014-Sep-15 16:30N 35°51' E 014°40'0 0.0
2014-Sep-15 15:33N 35°51' E 014°40'0 0.0
2014-Sep-15 14:33N 35°51' E 014°40'0 0.0
2014-Sep-15 13:33N 35°51' E 014°40'0 0.0
2014-Sep-15 12:33N 35°51' E 014°40'0 0.0
2014-Sep-15 11:33N 35°51' E 014°40'0 0.0
2014-Sep-15 10:33N 35°51' E 014°40'0 0.0
2014-Sep-15 09:33N 35°51' E 014°40'0 0.0
2014-Sep-15 08:33N 35°51' E 014°40'0 0.0
2014-Sep-15 07:30N 35°51' E 014°40'0 0.0
2014-Sep-15 06:30N 35°51' E 014°40'0 0.0
2014-Sep-15 05:22N 35°51' E 014°40'5 6.5
2014-Sep-15 04:33N 35°48' E 014°35'2 1.8
2014-Sep-15 03:30N 35°49' E 014°33'19 2.0
2014-Sep-14 18:12N 35°49' E 014°56'1013.8
2014-Sep-14 17:29N 35°50' E 015°08'39414.0
2014-Sep-13 13:17N 36°26' E 023°14'3015.4
2014-Sep-13 11:21N 36°52' E 023°33'3115.0
2014-Sep-13 09:17N 37°18' E 023°54'1114.8
2014-Sep-13 08:33N 37°27' E 024°01'3014.8
2014-Sep-13 06:33N 37°49' E 024°26'4514.9
2014-Sep-13 03:33N 38°28' E 024°55'3115.1
2014-Sep-13 01:28N 38°56' E 025°14'1415.3
2014-Sep-13 00:34N 39°08' E 025°23'187 6.9
2014-Sep-11 21:33N 40°27' E 029°03'0 0.0
2014-Sep-11 20:33N 40°27' E 029°03'0 0.0
2014-Sep-11 19:23N 40°27' E 029°03'  

Dump ship's entire track history